Comanche, Texas
Current Conditions -  °F | °C
As of 3:15 PM on Tuesday 21 Oct 2014 (Local Time) from KMKN Reporting Station
Clear Clear  
Wind Chill: 27°   Ceiling: Unl
Heat Index: 27°   Visibility: 10mi
Dew Point: 13°   Wind: 8mph
Humidity: 43%   Direction: 150°SSE
Pressure: 30.04"   Gusts: NA
Location:  31.9°N, 98.6°W
Report Text: KMKN 212015Z AUTO 15007KT 10SM CLR 27/13 A3004 RMK AO2 T02660132
Loading
Personal Weather Stations






























Interactive Weather Map
Tropical Storm Tracking
New forecast layout! Learn more

10-Day Weather Forecast

Advertisements
Track Severe Weather on mobile